sensor_id;sensor_type;location;lat;lon;timestamp;P1;durP1;ratioP1;P2;durP2;ratioP2
23614;SDS011;11985;49.404;7.734;2023-06-26T00:01:20;6.72;;;5.38;;
23614;SDS011;11985;49.404;7.734;2023-06-26T00:06:23;11.18;;;6.05;;
23614;SDS011;11985;49.404;7.734;2023-06-26T00:11:26;8.23;;;5.30;;
23614;SDS011;11985;49.404;7.734;2023-06-26T00:21:33;6.13;;;5.03;;
23614;SDS011;11985;49.404;7.734;2023-06-26T00:26:35;8.57;;;5.63;;
23614;SDS011;11985;49.404;7.734;2023-06-26T00:31:36;8.25;;;5.93;;
23614;SDS011;11985;49.404;7.734;2023-06-26T00:36:39;10.57;;;5.93;;
23614;SDS011;11985;49.404;7.734;2023-06-26T00:41:43;6.95;;;5.25;;
23614;SDS011;11985;49.404;7.734;2023-06-26T00:46:45;8.35;;;5.40;;
23614;SDS011;11985;49.404;7.734;2023-06-26T00:51:48;9.38;;;5.13;;
23614;SDS011;11985;49.404;7.734;2023-06-26T00:56:50;6.85;;;5.50;;
23614;SDS011;11985;49.404;7.734;2023-06-26T01:01:51;7.97;;;6.03;;
23614;SDS011;11985;49.404;7.734;2023-06-26T01:06:54;9.07;;;5.40;;
23614;SDS011;11985;49.404;7.734;2023-06-26T01:11:57;7.20;;;5.78;;
23614;SDS011;11985;49.404;7.734;2023-06-26T01:16:59;8.73;;;5.50;;
23614;SDS011;11985;49.404;7.734;2023-06-26T01:22:07;7.53;;;5.55;;
23614;SDS011;11985;49.404;7.734;2023-06-26T01:27:17;10.02;;;5.30;;
23614;SDS011;11985;49.404;7.734;2023-06-26T01:32:22;8.65;;;6.30;;
23614;SDS011;11985;49.404;7.734;2023-06-26T01:37:24;8.38;;;5.47;;
23614;SDS011;11985;49.404;7.734;2023-06-26T01:42:27;8.20;;;5.55;;
23614;SDS011;11985;49.404;7.734;2023-06-26T01:47:28;8.23;;;5.82;;
23614;SDS011;11985;49.404;7.734;2023-06-26T01:52:35;8.23;;;5.50;;
23614;SDS011;11985;49.404;7.734;2023-06-26T01:57:43;7.90;;;5.50;;
23614;SDS011;11985;49.404;7.734;2023-06-26T02:02:46;8.73;;;6.22;;
23614;SDS011;11985;49.404;7.734;2023-06-26T02:07:48;8.57;;;5.90;;
23614;SDS011;11985;49.404;7.734;2023-06-26T02:12:51;8.43;;;5.80;;
23614;SDS011;11985;49.404;7.734;2023-06-26T02:17:52;7.90;;;5.50;;
23614;SDS011;11985;49.404;7.734;2023-06-26T02:22:54;7.18;;;5.55;;
23614;SDS011;11985;49.404;7.734;2023-06-26T02:27:57;9.75;;;5.90;;
23614;SDS011;11985;49.404;7.734;2023-06-26T02:32:58;11.07;;;6.45;;
23614;SDS011;11985;49.404;7.734;2023-06-26T02:38:00;7.57;;;5.78;;
23614;SDS011;11985;49.404;7.734;2023-06-26T02:43:03;8.40;;;6.22;;
23614;SDS011;11985;49.404;7.734;2023-06-26T02:48:04;8.98;;;6.20;;
23614;SDS011;11985;49.404;7.734;2023-06-26T02:53:06;10.82;;;5.72;;
23614;SDS011;11985;49.404;7.734;2023-06-26T02:58:10;7.40;;;5.63;;
23614;SDS011;11985;49.404;7.734;2023-06-26T03:03:11;7.95;;;6.03;;
23614;SDS011;11985;49.404;7.734;2023-06-26T03:08:13;8.73;;;6.30;;
23614;SDS011;11985;49.404;7.734;2023-06-26T03:13:16;10.45;;;5.90;;
23614;SDS011;11985;49.404;7.734;2023-06-26T03:18:18;12.50;;;6.68;;
23614;SDS011;11985;49.404;7.734;2023-06-26T03:23:19;8.65;;;6.10;;
23614;SDS011;11985;49.404;7.734;2023-06-26T03:28:22;10.52;;;6.20;;
23614;SDS011;11985;49.404;7.734;2023-06-26T03:33:24;8.48;;;5.78;;
23614;SDS011;11985;49.404;7.734;2023-06-26T03:38:26;8.98;;;6.38;;
23614;SDS011;11985;49.404;7.734;2023-06-26T03:43:28;10.02;;;6.20;;
23614;SDS011;11985;49.404;7.734;2023-06-26T03:48:30;9.27;;;6.57;;
23614;SDS011;11985;49.404;7.734;2023-06-26T03:53:32;8.30;;;5.90;;
23614;SDS011;11985;49.404;7.734;2023-06-26T03:58:34;11.27;;;6.07;;
23614;SDS011;11985;49.404;7.734;2023-06-26T04:03:36;10.82;;;7.20;;
23614;SDS011;11985;49.404;7.734;2023-06-26T04:08:38;14.02;;;5.90;;
23614;SDS011;11985;49.404;7.734;2023-06-26T04:13:41;9.18;;;5.95;;
23614;SDS011;11985;49.404;7.734;2023-06-26T04:18:42;7.95;;;6.05;;
23614;SDS011;11985;49.404;7.734;2023-06-26T04:23:44;10.23;;;7.55;;
23614;SDS011;11985;49.404;7.734;2023-06-26T04:28:46;9.00;;;6.63;;
23614;SDS011;11985;49.404;7.734;2023-06-26T04:33:48;7.90;;;5.78;;
23614;SDS011;11985;49.404;7.734;2023-06-26T04:38:51;7.70;;;5.80;;
23614;SDS011;11985;49.404;7.734;2023-06-26T04:43:54;7.93;;;5.55;;
23614;SDS011;11985;49.404;7.734;2023-06-26T04:48:55;12.13;;;6.15;;
23614;SDS011;11985;49.404;7.734;2023-06-26T04:53:58;20.70;;;6.93;;
23614;SDS011;11985;49.404;7.734;2023-06-26T04:59:01;11.35;;;6.90;;
23614;SDS011;11985;49.404;7.734;2023-06-26T05:04:03;8.87;;;5.77;;
23614;SDS011;11985;49.404;7.734;2023-06-26T05:09:05;12.27;;;5.38;;
23614;SDS011;11985;49.404;7.734;2023-06-26T05:14:08;8.00;;;5.78;;
23614;SDS011;11985;49.404;7.734;2023-06-26T05:19:09;9.18;;;6.07;;
23614;SDS011;11985;49.404;7.734;2023-06-26T05:24:11;6.93;;;5.53;;
23614;SDS011;11985;49.404;7.734;2023-06-26T05:29:16;8.02;;;5.55;;
23614;SDS011;11985;49.404;7.734;2023-06-26T05:34:18;6.25;;;5.03;;
23614;SDS011;11985;49.404;7.734;2023-06-26T05:39:23;7.85;;;5.47;;
23614;SDS011;11985;49.404;7.734;2023-06-26T05:44:27;7.65;;;4.97;;
23614;SDS011;11985;49.404;7.734;2023-06-26T05:49:28;7.00;;;5.38;;
23614;SDS011;11985;49.404;7.734;2023-06-26T05:54:30;7.18;;;5.20;;
23614;SDS011;11985;49.404;7.734;2023-06-26T05:59:33;6.60;;;5.38;;
23614;SDS011;11985;49.404;7.734;2023-06-26T06:04:38;6.53;;;5.03;;
23614;SDS011;11985;49.404;7.734;2023-06-26T06:09:39;8.20;;;5.88;;
23614;SDS011;11985;49.404;7.734;2023-06-26T06:14:42;7.78;;;5.07;;
23614;SDS011;11985;49.404;7.734;2023-06-26T06:19:44;5.57;;;5.05;;
23614;SDS011;11985;49.404;7.734;2023-06-26T06:24:46;6.85;;;5.30;;
23614;SDS011;11985;49.404;7.734;2023-06-26T06:29:51;10.23;;;5.22;;
23614;SDS011;11985;49.404;7.734;2023-06-26T06:34:52;8.07;;;5.40;;
23614;SDS011;11985;49.404;7.734;2023-06-26T06:39:54;7.85;;;5.28;;
23614;SDS011;11985;49.404;7.734;2023-06-26T06:44:57;8.25;;;5.47;;
23614;SDS011;11985;49.404;7.734;2023-06-26T06:49:59;7.20;;;5.53;;
23614;SDS011;11985;49.404;7.734;2023-06-26T06:55:07;7.13;;;5.35;;
23614;SDS011;11985;49.404;7.734;2023-06-26T07:00:12;9.15;;;5.55;;
23614;SDS011;11985;49.404;7.734;2023-06-26T07:05:15;9.20;;;5.90;;
23614;SDS011;11985;49.404;7.734;2023-06-26T07:10:17;8.00;;;5.30;;
23614;SDS011;11985;49.404;7.734;2023-06-26T07:15:20;7.45;;;5.90;;
23614;SDS011;11985;49.404;7.734;2023-06-26T07:20:22;8.98;;;6.45;;
23614;SDS011;11985;49.404;7.734;2023-06-26T07:25:23;10.27;;;5.90;;
23614;SDS011;11985;49.404;7.734;2023-06-26T07:30:26;8.90;;;5.90;;
23614;SDS011;11985;49.404;7.734;2023-06-26T07:35:28;6.85;;;5.78;;
23614;SDS011;11985;49.404;7.734;2023-06-26T07:40:29;8.20;;;5.72;;
23614;SDS011;11985;49.404;7.734;2023-06-26T07:45:32;8.40;;;6.10;;
23614;SDS011;11985;49.404;7.734;2023-06-26T07:50:34;8.98;;;6.05;;
23614;SDS011;11985;49.404;7.734;2023-06-26T07:55:35;7.53;;;5.47;;
23614;SDS011;11985;49.404;7.734;2023-06-26T08:00:38;7.25;;;5.43;;
23614;SDS011;11985;49.404;7.734;2023-06-26T08:05:41;11.75;;;6.43;;
23614;SDS011;11985;49.404;7.734;2023-06-26T08:10:43;10.45;;;6.10;;
23614;SDS011;11985;49.404;7.734;2023-06-26T08:15:46;8.25;;;6.07;;
23614;SDS011;11985;49.404;7.734;2023-06-26T08:20:47;7.28;;;6.30;;
23614;SDS011;11985;49.404;7.734;2023-06-26T08:25:49;9.50;;;6.70;;
23614;SDS011;11985;49.404;7.734;2023-06-26T08:30:52;14.98;;;6.55;;
23614;SDS011;11985;49.404;7.734;2023-06-26T08:35:54;10.80;;;6.87;;
23614;SDS011;11985;49.404;7.734;2023-06-26T08:40:56;7.70;;;6.18;;
23614;SDS011;11985;49.404;7.734;2023-06-26T08:45:59;10.05;;;5.82;;
23614;SDS011;11985;49.404;7.734;2023-06-26T08:51:01;9.20;;;6.05;;
23614;SDS011;11985;49.404;7.734;2023-06-26T08:56:09;7.75;;;5.70;;
23614;SDS011;11985;49.404;7.734;2023-06-26T09:01:17;10.00;;;6.03;;
23614;SDS011;11985;49.404;7.734;2023-06-26T09:06:19;9.65;;;5.80;;
23614;SDS011;11985;49.404;7.734;2023-06-26T09:11:20;10.40;;;5.53;;
23614;SDS011;11985;49.404;7.734;2023-06-26T09:16:25;6.60;;;5.00;;
23614;SDS011;11985;49.404;7.734;2023-06-26T09:21:27;14.55;;;5.35;;
23614;SDS011;11985;49.404;7.734;2023-06-26T09:26:29;8.07;;;4.68;;
23614;SDS011;11985;49.404;7.734;2023-06-26T09:31:32;6.78;;;5.28;;
23614;SDS011;11985;49.404;7.734;2023-06-26T09:36:34;10.38;;;5.15;;
23614;SDS011;11985;49.404;7.734;2023-06-26T09:41:36;8.52;;;5.15;;
23614;SDS011;11985;49.404;7.734;2023-06-26T09:46:40;7.43;;;5.05;;
23614;SDS011;11985;49.404;7.734;2023-06-26T09:51:42;10.23;;;4.80;;
23614;SDS011;11985;49.404;7.734;2023-06-26T09:56:44;6.63;;;4.72;;
23614;SDS011;11985;49.404;7.734;2023-06-26T10:01:46;10.43;;;4.78;;
23614;SDS011;11985;49.404;7.734;2023-06-26T10:06:49;11.82;;;4.88;;
23614;SDS011;11985;49.404;7.734;2023-06-26T10:11:54;9.48;;;4.47;;
23614;SDS011;11985;49.404;7.734;2023-06-26T10:16:59;4.68;;;3.92;;
23614;SDS011;11985;49.404;7.734;2023-06-26T10:22:04;5.25;;;4.10;;
23614;SDS011;11985;49.404;7.734;2023-06-26T10:27:07;10.50;;;4.45;;
23614;SDS011;11985;49.404;7.734;2023-06-26T10:32:21;5.93;;;4.30;;
23614;SDS011;11985;49.404;7.734;2023-06-26T10:37:40;9.63;;;4.53;;
23614;SDS011;11985;49.404;7.734;2023-06-26T10:42:42;12.38;;;4.10;;
23614;SDS011;11985;49.404;7.734;2023-06-26T10:47:46;8.73;;;4.22;;
23614;SDS011;11985;49.404;7.734;2023-06-26T11:03:43;6.82;;;3.42;;
23614;SDS011;11985;49.404;7.734;2023-06-26T11:08:47;5.95;;;4.13;;
23614;SDS011;11985;49.404;7.734;2023-06-26T11:13:49;9.02;;;4.10;;
23614;SDS011;11985;49.404;7.734;2023-06-26T11:18:53;6.72;;;3.50;;
23614;SDS011;11985;49.404;7.734;2023-06-26T11:23:59;6.85;;;4.03;;
23614;SDS011;11985;49.404;7.734;2023-06-26T11:29:03;7.65;;;3.85;;
23614;SDS011;11985;49.404;7.734;2023-06-26T11:34:07;7.25;;;5.50;;
23614;SDS011;11985;49.404;7.734;2023-06-26T11:39:10;7.65;;;6.13;;
23614;SDS011;11985;49.404;7.734;2023-06-26T11:44:12;13.68;;;4.80;;
23614;SDS011;11985;49.404;7.734;2023-06-26T11:49:16;7.53;;;5.37;;
23614;SDS011;11985;49.404;7.734;2023-06-26T11:54:22;9.70;;;6.55;;
23614;SDS011;11985;49.404;7.734;2023-06-26T11:59:32;8.18;;;5.22;;
23614;SDS011;11985;49.404;7.734;2023-06-26T12:04:37;6.32;;;4.47;;
23614;SDS011;11985;49.404;7.734;2023-06-26T12:09:40;11.20;;;3.97;;
23614;SDS011;11985;49.404;7.734;2023-06-26T12:19:46;13.07;;;2.75;;
23614;SDS011;11985;49.404;7.734;2023-06-26T12:24:49;3.47;;;2.33;;
23614;SDS011;11985;49.404;7.734;2023-06-26T12:29:52;4.20;;;2.15;;
23614;SDS011;11985;49.404;7.734;2023-06-26T12:34:56;7.38;;;2.10;;
23614;SDS011;11985;49.404;7.734;2023-06-26T12:39:59;7.07;;;2.08;;
23614;SDS011;11985;49.404;7.734;2023-06-26T12:45:09;8.25;;;1.92;;
23614;SDS011;11985;49.404;7.734;2023-06-26T12:50:13;10.15;;;1.83;;
23614;SDS011;11985;49.404;7.734;2023-06-26T12:55:16;3.65;;;2.05;;
23614;SDS011;11985;49.404;7.734;2023-06-26T13:00:18;4.88;;;2.00;;
23614;SDS011;11985;49.404;7.734;2023-06-26T13:05:21;4.70;;;1.77;;
23614;SDS011;11985;49.404;7.734;2023-06-26T13:10:23;5.70;;;1.73;;
23614;SDS011;11985;49.404;7.734;2023-06-26T13:20:30;5.53;;;2.20;;
23614;SDS011;11985;49.404;7.734;2023-06-26T13:25:31;4.10;;;1.65;;
23614;SDS011;11985;49.404;7.734;2023-06-26T13:30:33;4.97;;;1.98;;
23614;SDS011;11985;49.404;7.734;2023-06-26T13:35:36;3.88;;;1.75;;
23614;SDS011;11985;49.404;7.734;2023-06-26T13:40:37;6.93;;;1.88;;
23614;SDS011;11985;49.404;7.734;2023-06-26T13:45:39;5.88;;;1.50;;
23614;SDS011;11985;49.404;7.734;2023-06-26T13:50:42;2.35;;;1.52;;
23614;SDS011;11985;49.404;7.734;2023-06-26T13:55:43;7.32;;;2.00;;
23614;SDS011;11985;49.404;7.734;2023-06-26T14:00:45;4.30;;;1.50;;
23614;SDS011;11985;49.404;7.734;2023-06-26T14:05:48;4.70;;;1.50;;
23614;SDS011;11985;49.404;7.734;2023-06-26T14:10:51;4.63;;;1.50;;
23614;SDS011;11985;49.404;7.734;2023-06-26T14:15:52;4.75;;;2.10;;
23614;SDS011;11985;49.404;7.734;2023-06-26T14:20:55;8.10;;;2.05;;
23614;SDS011;11985;49.404;7.734;2023-06-26T14:25:57;5.07;;;2.22;;
23614;SDS011;11985;49.404;7.734;2023-06-26T14:30:58;7.60;;;1.60;;
23614;SDS011;11985;49.404;7.734;2023-06-26T14:36:01;6.80;;;1.75;;
23614;SDS011;11985;49.404;7.734;2023-06-26T14:41:03;4.70;;;1.50;;
23614;SDS011;11985;49.404;7.734;2023-06-26T14:46:04;4.45;;;1.50;;
23614;SDS011;11985;49.404;7.734;2023-06-26T14:51:07;3.65;;;1.58;;
23614;SDS011;11985;49.404;7.734;2023-06-26T14:56:09;7.85;;;1.30;;
23614;SDS011;11985;49.404;7.734;2023-06-26T15:01:10;2.75;;;1.60;;
23614;SDS011;11985;49.404;7.734;2023-06-26T15:06:13;3.13;;;1.55;;
23614;SDS011;11985;49.404;7.734;2023-06-26T15:11:15;3.70;;;1.33;;
23614;SDS011;11985;49.404;7.734;2023-06-26T15:16:17;6.95;;;1.40;;
23614;SDS011;11985;49.404;7.734;2023-06-26T15:21:20;2.75;;;1.40;;
23614;SDS011;11985;49.404;7.734;2023-06-26T15:26:22;8.70;;;1.30;;
23614;SDS011;11985;49.404;7.734;2023-06-26T15:31:23;3.47;;;1.17;;
23614;SDS011;11985;49.404;7.734;2023-06-26T15:36:27;6.53;;;1.40;;
23614;SDS011;11985;49.404;7.734;2023-06-26T15:41:28;7.07;;;1.65;;
23614;SDS011;11985;49.404;7.734;2023-06-26T15:46:30;9.02;;;1.52;;
23614;SDS011;11985;49.404;7.734;2023-06-26T15:51:33;3.58;;;1.40;;
23614;SDS011;11985;49.404;7.734;2023-06-26T15:56:37;5.20;;;1.80;;
23614;SDS011;11985;49.404;7.734;2023-06-26T16:01:39;3.28;;;1.55;;
23614;SDS011;11985;49.404;7.734;2023-06-26T16:06:42;5.10;;;1.70;;
23614;SDS011;11985;49.404;7.734;2023-06-26T16:11:44;6.25;;;1.80;;
23614;SDS011;11985;49.404;7.734;2023-06-26T16:16:45;5.95;;;1.55;;
23614;SDS011;11985;49.404;7.734;2023-06-26T16:21:48;5.10;;;1.45;;
23614;SDS011;11985;49.404;7.734;2023-06-26T16:26:50;4.32;;;1.60;;
23614;SDS011;11985;49.404;7.734;2023-06-26T16:31:52;4.40;;;1.60;;
23614;SDS011;11985;49.404;7.734;2023-06-26T16:36:55;4.75;;;1.42;;
23614;SDS011;11985;49.404;7.734;2023-06-26T16:41:57;4.68;;;1.65;;
23614;SDS011;11985;49.404;7.734;2023-06-26T16:46:59;3.63;;;1.83;;
23614;SDS011;11985;49.404;7.734;2023-06-26T16:52:03;4.50;;;1.52;;
23614;SDS011;11985;49.404;7.734;2023-06-26T16:57:05;5.87;;;1.67;;
23614;SDS011;11985;49.404;7.734;2023-06-26T17:02:07;6.05;;;2.05;;
23614;SDS011;11985;49.404;7.734;2023-06-26T17:07:10;4.97;;;1.88;;
23614;SDS011;11985;49.404;7.734;2023-06-26T17:12:12;5.13;;;1.60;;
23614;SDS011;11985;49.404;7.734;2023-06-26T17:17:16;8.50;;;1.60;;
23614;SDS011;11985;49.404;7.734;2023-06-26T17:22:21;8.63;;;1.63;;
23614;SDS011;11985;49.404;7.734;2023-06-26T17:27:23;4.80;;;1.75;;
23614;SDS011;11985;49.404;7.734;2023-06-26T17:32:27;5.90;;;1.60;;
23614;SDS011;11985;49.404;7.734;2023-06-26T17:37:30;4.45;;;1.80;;
23614;SDS011;11985;49.404;7.734;2023-06-26T17:42:32;4.57;;;1.90;;
23614;SDS011;11985;49.404;7.734;2023-06-26T17:47:33;7.07;;;2.13;;
23614;SDS011;11985;49.404;7.734;2023-06-26T17:52:37;4.22;;;1.45;;
23614;SDS011;11985;49.404;7.734;2023-06-26T17:57:41;9.60;;;1.88;;
23614;SDS011;11985;49.404;7.734;2023-06-26T18:02:43;4.32;;;1.50;;
23614;SDS011;11985;49.404;7.734;2023-06-26T18:07:46;4.55;;;1.65;;
23614;SDS011;11985;49.404;7.734;2023-06-26T18:12:48;5.25;;;1.95;;
23614;SDS011;11985;49.404;7.734;2023-06-26T18:17:52;4.95;;;1.60;;
23614;SDS011;11985;49.404;7.734;2023-06-26T18:22:55;3.50;;;1.70;;
23614;SDS011;11985;49.404;7.734;2023-06-26T18:27:57;8.18;;;1.73;;
23614;SDS011;11985;49.404;7.734;2023-06-26T18:32:59;5.78;;;1.38;;
23614;SDS011;11985;49.404;7.734;2023-06-26T18:38:02;4.60;;;1.58;;
23614;SDS011;11985;49.404;7.734;2023-06-26T18:43:05;4.35;;;1.55;;
23614;SDS011;11985;49.404;7.734;2023-06-26T18:48:06;5.70;;;1.58;;
23614;SDS011;11985;49.404;7.734;2023-06-26T18:53:09;3.50;;;1.55;;
23614;SDS011;11985;49.404;7.734;2023-06-26T18:58:11;3.05;;;1.30;;
23614;SDS011;11985;49.404;7.734;2023-06-26T19:03:12;4.45;;;1.75;;
23614;SDS011;11985;49.404;7.734;2023-06-26T19:08:15;9.82;;;1.70;;
23614;SDS011;11985;49.404;7.734;2023-06-26T19:13:17;5.95;;;2.03;;
23614;SDS011;11985;49.404;7.734;2023-06-26T19:18:19;3.22;;;1.50;;
23614;SDS011;11985;49.404;7.734;2023-06-26T19:23:22;6.28;;;1.58;;
23614;SDS011;11985;49.404;7.734;2023-06-26T19:28:23;4.45;;;1.63;;
23614;SDS011;11985;49.404;7.734;2023-06-26T19:33:25;3.95;;;1.70;;
23614;SDS011;11985;49.404;7.734;2023-06-26T19:38:28;3.92;;;1.33;;
23614;SDS011;11985;49.404;7.734;2023-06-26T19:43:30;11.25;;;2.10;;
23614;SDS011;11985;49.404;7.734;2023-06-26T19:48:32;6.28;;;1.60;;
23614;SDS011;11985;49.404;7.734;2023-06-26T19:53:37;3.92;;;1.40;;
23614;SDS011;11985;49.404;7.734;2023-06-26T19:58:39;8.10;;;1.75;;
23614;SDS011;11985;49.404;7.734;2023-06-26T20:03:40;9.77;;;2.15;;
23614;SDS011;11985;49.404;7.734;2023-06-26T20:08:43;4.53;;;1.70;;
23614;SDS011;11985;49.404;7.734;2023-06-26T20:13:45;4.28;;;1.40;;
23614;SDS011;11985;49.404;7.734;2023-06-26T20:18:47;5.55;;;1.85;;
23614;SDS011;11985;49.404;7.734;2023-06-26T20:23:50;2.85;;;1.50;;
23614;SDS011;11985;49.404;7.734;2023-06-26T20:28:51;5.32;;;1.90;;
23614;SDS011;11985;49.404;7.734;2023-06-26T20:33:53;5.90;;;1.67;;
23614;SDS011;11985;49.404;7.734;2023-06-26T20:38:56;9.65;;;1.92;;
23614;SDS011;11985;49.404;7.734;2023-06-26T20:43:58;3.92;;;1.40;;
23614;SDS011;11985;49.404;7.734;2023-06-26T20:49:00;6.95;;;1.58;;
23614;SDS011;11985;49.404;7.734;2023-06-26T20:54:03;5.80;;;1.90;;
23614;SDS011;11985;49.404;7.734;2023-06-26T20:59:05;4.32;;;1.70;;
23614;SDS011;11985;49.404;7.734;2023-06-26T21:04:07;8.35;;;2.03;;
23614;SDS011;11985;49.404;7.734;2023-06-26T21:09:10;6.25;;;1.75;;
23614;SDS011;11985;49.404;7.734;2023-06-26T21:14:11;5.90;;;1.70;;
23614;SDS011;11985;49.404;7.734;2023-06-26T21:19:13;5.45;;;1.42;;
23614;SDS011;11985;49.404;7.734;2023-06-26T21:24:16;6.70;;;1.73;;
23614;SDS011;11985;49.404;7.734;2023-06-26T21:29:18;3.15;;;1.55;;
23614;SDS011;11985;49.404;7.734;2023-06-26T21:34:19;6.72;;;1.70;;
23614;SDS011;11985;49.404;7.734;2023-06-26T21:39:22;2.80;;;1.40;;
23614;SDS011;11985;49.404;7.734;2023-06-26T21:44:24;6.47;;;2.05;;
23614;SDS011;11985;49.404;7.734;2023-06-26T21:49:25;6.28;;;1.77;;
23614;SDS011;11985;49.404;7.734;2023-06-26T21:54:28;7.45;;;1.70;;
23614;SDS011;11985;49.404;7.734;2023-06-26T21:59:30;3.30;;;1.70;;
23614;SDS011;11985;49.404;7.734;2023-06-26T22:04:31;3.45;;;1.73;;
23614;SDS011;11985;49.404;7.734;2023-06-26T22:09:34;4.93;;;1.80;;
23614;SDS011;11985;49.404;7.734;2023-06-26T22:14:38;4.30;;;1.63;;
23614;SDS011;11985;49.404;7.734;2023-06-26T22:19:39;5.10;;;1.95;;
23614;SDS011;11985;49.404;7.734;2023-06-26T22:24:42;3.45;;;1.45;;
23614;SDS011;11985;49.404;7.734;2023-06-26T22:29:44;4.82;;;1.70;;
23614;SDS011;11985;49.404;7.734;2023-06-26T22:34:46;6.15;;;1.83;;
23614;SDS011;11985;49.404;7.734;2023-06-26T22:39:51;5.97;;;1.85;;
23614;SDS011;11985;49.404;7.734;2023-06-26T22:44:52;3.88;;;1.48;;
23614;SDS011;11985;49.404;7.734;2023-06-26T22:49:54;3.85;;;1.52;;
23614;SDS011;11985;49.404;7.734;2023-06-26T22:54:58;4.13;;;1.63;;
23614;SDS011;11985;49.404;7.734;2023-06-26T23:00:00;4.80;;;1.87;;
23614;SDS011;11985;49.404;7.734;2023-06-26T23:05:08;7.35;;;1.83;;
23614;SDS011;11985;49.404;7.734;2023-06-26T23:10:12;3.90;;;1.65;;
23614;SDS011;11985;49.404;7.734;2023-06-26T23:15:14;6.90;;;1.90;;
23614;SDS011;11985;49.404;7.734;2023-06-26T23:20:15;6.53;;;1.90;;
23614;SDS011;11985;49.404;7.734;2023-06-26T23:25:19;3.25;;;2.20;;
23614;SDS011;11985;49.404;7.734;2023-06-26T23:30:21;5.55;;;1.80;;
23614;SDS011;11985;49.404;7.734;2023-06-26T23:35:22;7.65;;;1.70;;
23614;SDS011;11985;49.404;7.734;2023-06-26T23:40:25;4.22;;;1.83;;
23614;SDS011;11985;49.404;7.734;2023-06-26T23:45:28;4.95;;;1.77;;
23614;SDS011;11985;49.404;7.734;2023-06-26T23:50:31;4.50;;;1.50;;
23614;SDS011;11985;49.404;7.734;2023-06-26T23:55:34;6.95;;;1.80;;
